Weather History for Ogallala, NE

Change the Weather History Date:

Thursday, May 23, 2013

  Actual Average Record
Temperature  
Mean Temperature 58 °F -  
Max Temperature 68 °F 72 °F 92 °F (1950)
Min Temperature 48 °F 47 °F 35 °F (1957)
Degree Days  
Heating Degree Days 7    
Growing Degree Days 8 (Base 50)    
Moisture  
Dew Point 47 °F    
Average Humidity 65    
Maximum Humidity 89    
Minimum Humidity 46    
Precipitation  
Precipitation 0.00 in - - ()
Sea Level Pressure  
Sea Level Pressure 30.14 in    
Wind  
Wind Speed 13 mph (ESE)    
Max Wind Speed 20 mph    
Max Gust Speed 30 mph    
Visibility 10 miles    
Events Thunderstorm    
Averages and records for this station are not official NWS values.
T = Trace of Precipitation, MM = Missing Value Source: NWS Daily Summary

Daily Weather History Graph

Daily Weather History Graph

Search for Another Location

Airport:

Trip Planner

Search our weather history database for the weather conditions in past years. The results will help you decide how hot, cold, wet, or windy it might be!

Date:

Astronomy

May. 23, 2013 Rise Set
Actual Time 5:21 AM MDT 8:06 PM MDT
Civil Twilight 4:49 AM MDT 8:38 PM MDT
Nautical Twilight 4:09 AM MDT 9:19 PM MDT
Astronomical Twilight 3:23 AM MDT 10:05 PM MDT
Moon 6:40 PM MDT (5/23) 4:09 AM MDT (5/23)
Length of Visible Light 15h 48m
Length of Day
14h 44m
Waxing Gibbous, 97% of the Moon is Illuminated
May 23
Waxing Gibbous
May 24
Full
May 31
Last Quarter
Jun 8
New
Jun 16
First Quarter

Hourly Weather History & Observations

Time (MDT) Temp. Dew Point Humidity Pressure Visibility Wind Dir Wind Speed Gust Speed Precip Events Conditions
12:15 AM 51.8 °F 45.1 °F 78% 30.11 in 10.0 mi ENE 15.0 mph 26.5 mph N/A   Overcast
12:35 AM 51.8 °F 45.5 °F 79% 30.11 in 10.0 mi NE 17.3 mph 21.9 mph N/A   Overcast
12:55 AM 51.8 °F 45.5 °F 79% 30.13 in 10.0 mi NE 13.8 mph - N/A   Overcast
1:15 AM 51.8 °F 45.1 °F 78% 30.13 in 10.0 mi ENE 10.4 mph - N/A   Overcast
1:35 AM 51.8 °F 45.1 °F 78% 30.15 in 10.0 mi NE 10.4 mph - N/A   Overcast
1:55 AM 51.4 °F 44.6 °F 77% 30.15 in 10.0 mi ENE 10.4 mph - N/A   Overcast
2:15 AM 51.4 °F 45.1 °F 79% 30.15 in 10.0 mi ENE 5.8 mph - N/A Thunderstorm Overcast
2:35 AM 51.4 °F 45.3 °F 80% 30.15 in 10.0 mi ENE 10.4 mph - N/A   Overcast
2:55 AM 51.3 °F 45.7 °F 81% 30.15 in 10.0 mi NE 12.7 mph - N/A   Overcast
3:15 AM 50.9 °F 45.9 °F 83% 30.15 in 10.0 mi ENE 12.7 mph - N/A   Overcast
3:35 AM 49.1 °F 45.9 °F 89% 30.17 in 10.0 mi East 8.1 mph - N/A   Overcast
3:55 AM 49.6 °F 45.1 °F 84% 30.18 in 10.0 mi East 10.4 mph - N/A   Overcast
4:15 AM 49.1 °F 44.6 °F 84% 30.17 in 10.0 mi East 10.4 mph - N/A   Overcast
4:35 AM 48.7 °F 43.5 °F 82% 30.18 in 10.0 mi East 10.4 mph - N/A   Overcast
4:55 AM 48.6 °F 43.7 °F 83% 30.20 in 10.0 mi East 3.5 mph - N/A   Overcast
5:15 AM 48.6 °F 43.7 °F 83% 30.19 in 10.0 mi East 5.8 mph - N/A   Overcast
5:35 AM 48.6 °F 43.7 °F 83% 30.19 in 10.0 mi East 8.1 mph - N/A   Overcast
5:55 AM 48.6 °F 43.9 °F 84% 30.18 in 10.0 mi East 9.2 mph - N/A   Overcast
6:15 AM 49.1 °F 44.2 °F 83% 30.18 in 10.0 mi East 10.4 mph - N/A   Overcast
6:35 AM 49.6 °F 44.1 °F 81% 30.17 in 10.0 mi East 11.5 mph - N/A   Mostly Cloudy
6:55 AM 50.0 °F 44.6 °F 82% 30.16 in 10.0 mi ENE 11.5 mph - N/A   Scattered Clouds
7:15 AM 51.1 °F 44.8 °F 79% 30.17 in 10.0 mi East 11.5 mph - N/A   Scattered Clouds
7:35 AM 52.3 °F 45.0 °F 76% 30.17 in 10.0 mi East 13.8 mph - N/A   Clear
7:55 AM 53.1 °F 45.1 °F 74% 30.17 in 10.0 mi East 15.0 mph 19.6 mph N/A   Clear
8:15 AM 54.3 °F 45.5 °F 72% 30.18 in 10.0 mi East 10.4 mph - N/A   Clear
8:35 AM 55.6 °F 45.1 °F 68% 30.18 in 10.0 mi East 12.7 mph - N/A   Clear
8:55 AM 56.3 °F 45.1 °F 66% 30.19 in 10.0 mi East 12.7 mph - N/A   Clear
9:15 AM 57.4 °F 44.8 °F 63% 30.18 in 10.0 mi ESE 10.4 mph 18.4 mph N/A   Clear
9:35 AM 58.5 °F 44.8 °F 60% 30.18 in 10.0 mi ESE 13.8 mph 19.6 mph N/A   Clear
9:55 AM 59.4 °F 45.9 °F 61% 30.18 in 10.0 mi East 15.0 mph 18.4 mph N/A   Clear
10:15 AM 59.7 °F 46.4 °F 61% 30.18 in 10.0 mi East 11.5 mph 19.6 mph N/A   Clear
10:35 AM 60.3 °F 46.8 °F 61% 30.18 in 10.0 mi East 13.8 mph 17.3 mph N/A   Scattered Clouds
10:55 AM 61.3 °F 46.6 °F 58% 30.18 in 10.0 mi ESE 11.5 mph 19.6 mph N/A   Scattered Clouds
11:15 AM 62.1 °F 46.4 °F 56% 30.18 in 10.0 mi ESE 13.8 mph - N/A   Scattered Clouds
11:35 AM 63.1 °F 47.3 °F 56% 30.18 in 10.0 mi SE 15.0 mph 25.3 mph N/A   Scattered Clouds
11:55 AM 64.0 °F 47.3 °F 54% 30.17 in 10.0 mi East 18.4 mph - N/A   Scattered Clouds
12:15 PM 64.8 °F 47.3 °F 53% 30.15 in 10.0 mi ESE 15.0 mph 29.9 mph N/A   Scattered Clouds
12:35 PM 65.1 °F 46.9 °F 52% 30.16 in 10.0 mi ESE 15.0 mph 23.0 mph N/A   Clear
12:55 PM 66.9 °F 48.0 °F 51% 30.15 in 10.0 mi SE 12.7 mph 21.9 mph N/A   Scattered Clouds
1:15 PM 67.1 °F 47.1 °F 49% 30.15 in 10.0 mi SE 15.0 mph 20.7 mph N/A   Scattered Clouds
1:35 PM 67.5 °F 47.5 °F 49% 30.14 in 10.0 mi SE 16.1 mph 21.9 mph N/A   Scattered Clouds
1:55 PM 68.0 °F 47.7 °F 48% 30.14 in 10.0 mi SE 15.0 mph 20.7 mph N/A   Scattered Clouds
2:15 PM 67.3 °F 47.3 °F 49% 30.14 in 10.0 mi ESE 17.3 mph 25.3 mph N/A   Scattered Clouds
2:35 PM 67.6 °F 46.9 °F 47% 30.13 in 10.0 mi ESE 15.0 mph 26.5 mph N/A   Clear
2:55 PM 68.5 °F 47.7 °F 47% 30.12 in 10.0 mi ESE 18.4 mph 24.2 mph N/A   Clear
3:15 PM 68.0 °F 46.9 °F 47% 30.12 in 10.0 mi SE 13.8 mph 26.5 mph N/A   Clear
3:35 PM 68.2 °F 46.8 °F 46% 30.12 in 10.0 mi ESE 16.1 mph 23.0 mph N/A   Clear
3:55 PM 68.0 °F 46.9 °F 47% 30.12 in 10.0 mi SE 17.3 mph 26.5 mph N/A   Clear
4:15 PM 68.4 °F 47.5 °F 47% 30.12 in 10.0 mi SE 16.1 mph 21.9 mph N/A   Clear
4:35 PM 68.2 °F 47.1 °F 47% 30.11 in 10.0 mi SE 13.8 mph 24.2 mph N/A   Clear
4:55 PM 68.0 °F 47.5 °F 48% 30.11 in 10.0 mi SE 16.1 mph 24.2 mph N/A   Clear
5:15 PM 67.6 °F 47.7 °F 49% 30.11 in 10.0 mi SE 18.4 mph 24.2 mph N/A   Clear
5:35 PM 67.1 °F 47.8 °F 50% 30.11 in 10.0 mi SE 18.4 mph 24.2 mph N/A   Clear
5:55 PM 67.1 °F 47.7 °F 50% 30.10 in 10.0 mi SE 18.4 mph 25.3 mph N/A   Clear
6:15 PM 66.6 °F 47.5 °F 50% 30.10 in 10.0 mi SE 19.6 mph 24.2 mph N/A   Clear
6:35 PM 66.2 °F 47.7 °F 51% 30.11 in 10.0 mi ESE 15.0 mph 19.6 mph N/A   Clear
6:55 PM 65.3 °F 47.8 °F 53% 30.10 in 10.0 mi SE 16.1 mph 24.2 mph N/A   Clear
7:15 PM 64.6 °F 48.2 °F 55% 30.11 in 10.0 mi SE 13.8 mph 19.6 mph N/A   Scattered Clouds
7:35 PM 64.8 °F 48.2 °F 55% 30.11 in 10.0 mi SE 13.8 mph 18.4 mph N/A   Mostly Cloudy
7:55 PM 64.4 °F 48.0 °F 55% 30.11 in 10.0 mi ESE 13.8 mph 18.4 mph N/A   Overcast
8:15 PM 64.0 °F 48.4 °F 57% 30.11 in 10.0 mi ESE 11.5 mph - N/A   Overcast
8:35 PM 63.0 °F 48.4 °F 59% 30.10 in 10.0 mi ESE 12.7 mph - N/A   Overcast
8:55 PM 62.4 °F 48.7 °F 61% 30.10 in 10.0 mi ESE 11.5 mph - N/A   Overcast
9:15 PM 61.3 °F 49.1 °F 64% 30.11 in 10.0 mi ESE 12.7 mph - N/A   Mostly Cloudy
9:35 PM 60.3 °F 49.1 °F 67% 30.11 in 10.0 mi ESE 11.5 mph - N/A   Mostly Cloudy
9:55 PM 59.7 °F 49.1 °F 68% 30.11 in 10.0 mi ESE 11.5 mph - N/A   Mostly Cloudy
10:15 PM 60.1 °F 49.3 °F 67% 30.11 in 10.0 mi ESE 12.7 mph - N/A   Overcast
10:35 PM 60.4 °F 49.5 °F 67% 30.11 in 10.0 mi ESE 13.8 mph - N/A   Overcast
10:55 PM 60.3 °F 49.5 °F 68% 30.11 in 10.0 mi SE 12.7 mph 23.0 mph N/A   Overcast
11:15 PM 60.3 °F 49.5 °F 68% 30.11 in 10.0 mi SE 16.1 mph 21.9 mph N/A   Overcast
11:35 PM 60.3 °F 49.5 °F 68% 30.11 in 10.0 mi SE 17.3 mph 24.2 mph N/A   Overcast
11:55 PM 60.1 °F 49.5 °F 68% 30.11 in 10.0 mi SE 18.4 mph 24.2 mph N/A   Overcast